createdAt,value
2024-04-16T00:02:10.297Z,19.97
2024-04-16T00:04:39.975Z,19.07
2024-04-16T00:07:07.024Z,12.97
2024-04-16T00:09:36.666Z,12.40
2024-04-16T00:12:03.935Z,14.83
2024-04-16T00:14:33.526Z,12.37
2024-04-16T00:17:00.560Z,11.50
2024-04-16T00:19:32.893Z,17.93
2024-04-16T00:22:00.124Z,16.20
2024-04-16T00:24:29.849Z,11.47
2024-04-16T00:26:56.754Z,20.67
2024-04-16T00:29:26.307Z,15.90
2024-04-16T00:31:53.257Z,13.33
2024-04-16T00:34:22.720Z,13.97
2024-04-16T00:36:52.269Z,10.20
2024-04-16T00:39:21.784Z,13.57
2024-04-16T00:41:49.372Z,13.87
2024-04-16T00:44:18.839Z,14.77
2024-04-16T00:46:45.887Z,15.27
2024-04-16T00:49:15.490Z,12.93
2024-04-16T00:51:43.380Z,9.47
2024-04-16T00:54:15.905Z,11.47
2024-04-16T00:56:42.951Z,14.10
2024-04-16T00:59:14.258Z,7.90
2024-04-16T01:01:41.518Z,11.47
2024-04-16T01:04:11.245Z,12.03
2024-04-16T01:06:38.512Z,12.43
2024-04-16T01:09:08.068Z,9.97
2024-04-16T01:11:37.553Z,11.53
2024-04-16T01:14:07.149Z,12.00
2024-04-16T01:16:34.250Z,12.87
2024-04-16T01:19:04.261Z,10.80
2024-04-16T01:21:31.140Z,9.90
2024-04-16T01:24:03.419Z,7.90
2024-04-16T01:26:30.340Z,10.23
2024-04-16T01:28:59.916Z,10.47
2024-04-16T01:31:27.008Z,12.77
2024-04-16T01:33:56.516Z,16.03
2024-04-16T01:36:23.426Z,21.00
2024-04-16T01:38:53.069Z,11.57
2024-04-16T01:41:22.748Z,13.10
2024-04-16T01:43:52.619Z,15.03
2024-04-16T01:46:19.907Z,12.23
2024-04-16T01:48:49.951Z,16.43
2024-04-16T01:51:17.015Z,16.30
2024-04-16T01:53:46.418Z,16.73
2024-04-16T01:56:14.153Z,20.40
2024-04-16T01:58:46.285Z,16.67
2024-04-16T02:01:13.271Z,14.80
2024-04-16T02:03:43.066Z,16.10
2024-04-16T02:06:09.889Z,18.30
2024-04-16T02:08:39.381Z,10.53
2024-04-16T02:11:06.423Z,14.50
2024-04-16T02:13:35.941Z,20.13
2024-04-16T02:16:06.612Z,11.07
2024-04-16T02:18:36.347Z,26.00
2024-04-16T02:21:03.313Z,22.47
2024-04-16T02:23:32.788Z,22.50
2024-04-16T02:25:59.635Z,20.23
2024-04-16T02:28:29.197Z,16.40
2024-04-16T02:30:56.193Z,17.23
2024-04-16T02:33:28.228Z,23.07
2024-04-16T02:35:56.839Z,26.13
2024-04-16T02:38:26.405Z,14.67
2024-04-16T02:40:53.269Z,12.57
2024-04-16T02:43:22.936Z,18.63
2024-04-16T02:45:50.328Z,15.50
2024-04-16T02:48:19.793Z,12.57
2024-04-16T02:50:53.194Z,9.40
2024-04-16T02:53:22.715Z,13.43
2024-04-16T02:55:50.109Z,18.37
2024-04-16T02:58:19.805Z,12.97
2024-04-16T03:00:46.708Z,11.00
2024-04-16T03:03:16.308Z,10.80
2024-04-16T03:05:43.231Z,9.30
2024-04-16T03:08:15.394Z,10.23
2024-04-16T03:10:42.363Z,12.73
2024-04-16T03:13:15.263Z,17.13
2024-04-16T03:15:42.237Z,21.63
2024-04-16T03:18:12.043Z,17.57
2024-04-16T03:20:38.937Z,15.43
2024-04-16T03:23:08.704Z,14.03
2024-04-16T03:25:44.333Z,17.43
2024-04-16T03:28:14.275Z,14.77
2024-04-16T03:30:41.200Z,18.50
2024-04-16T03:33:10.858Z,12.80
2024-04-16T03:35:37.733Z,21.43
2024-04-16T03:38:07.750Z,15.97
2024-04-16T03:40:37.369Z,14.43
2024-04-16T03:43:07.005Z,13.80
2024-04-16T03:45:36.510Z,13.30
2024-04-16T03:48:03.594Z,15.60
2024-04-16T03:50:33.194Z,19.27
2024-04-16T03:53:00.196Z,16.77
2024-04-16T03:55:29.667Z,23.50
2024-04-16T03:57:56.622Z,16.53
2024-04-16T04:00:44.350Z,11.87
2024-04-16T04:03:17.495Z,15.03
2024-04-16T04:05:47.388Z,18.10
2024-04-16T04:08:14.522Z,19.87
2024-04-16T04:10:45.175Z,18.87
2024-04-16T04:13:12.167Z,25.93
2024-04-16T04:15:44.328Z,26.37
2024-04-16T04:18:14.059Z,24.10
2024-04-16T04:20:41.055Z,30.20
2024-04-16T04:23:10.978Z,28.13
2024-04-16T04:25:38.056Z,28.43
2024-04-16T04:28:08.518Z,30.70
2024-04-16T04:30:35.406Z,23.17
2024-04-16T04:33:07.877Z,33.47
2024-04-16T04:35:35.024Z,43.10
2024-04-16T04:38:04.673Z,35.03
2024-04-16T04:40:31.653Z,36.80
2024-04-16T04:43:01.419Z,35.43
2024-04-16T04:45:28.880Z,38.63
2024-04-16T04:47:58.551Z,42.70
2024-04-16T04:50:28.230Z,41.37
2024-04-16T04:52:57.772Z,32.40
2024-04-16T04:55:24.697Z,29.33
2024-04-16T04:57:57.719Z,23.10
2024-04-16T05:00:24.831Z,32.83
2024-04-16T05:02:54.532Z,36.27
2024-04-16T05:05:21.521Z,32.67
2024-04-16T05:07:53.720Z,26.93
2024-04-16T05:10:20.973Z,22.63
2024-04-16T05:12:51.111Z,16.73
2024-04-16T05:15:18.606Z,18.83
2024-04-16T05:17:48.783Z,21.07
2024-04-16T05:20:16.668Z,18.53
2024-04-16T05:22:46.401Z,24.20
2024-04-16T05:25:16.212Z,27.00
2024-04-16T05:27:46.493Z,37.00
2024-04-16T05:30:13.352Z,26.67
2024-04-16T05:32:43.052Z,13.50
2024-04-16T05:35:09.970Z,21.00
2024-04-16T05:37:42.330Z,25.43
2024-04-16T05:40:10.160Z,25.57
2024-04-16T05:42:42.414Z,41.63
2024-04-16T05:45:09.451Z,28.00
2024-04-16T05:47:39.023Z,33.57
2024-04-16T05:50:07.476Z,29.40
2024-04-16T05:52:37.022Z,32.50
2024-04-16T05:55:04.263Z,37.47
2024-04-16T05:57:33.868Z,34.27
2024-04-16T06:00:04.879Z,30.87
2024-04-16T06:02:34.877Z,37.40
2024-04-16T06:05:01.939Z,37.37
2024-04-16T06:07:31.668Z,25.50
2024-04-16T06:09:58.641Z,24.90
2024-04-16T06:12:28.181Z,31.00
2024-04-16T06:14:55.020Z,30.70
2024-04-16T06:17:27.110Z,32.77
2024-04-16T06:19:54.027Z,28.63
2024-04-16T06:22:23.878Z,29.53
2024-04-16T06:24:50.935Z,29.30
2024-04-16T06:27:20.664Z,28.07
2024-04-16T06:29:47.516Z,23.00
2024-04-16T06:32:17.539Z,29.93
2024-04-16T06:34:47.414Z,39.67
2024-04-16T06:37:16.965Z,25.00
2024-04-16T06:39:43.832Z,30.67
2024-04-16T06:42:15.480Z,25.33
2024-04-16T06:44:43.642Z,31.73
2024-04-16T06:47:13.292Z,24.73
2024-04-16T06:49:40.395Z,26.23
2024-04-16T06:52:12.651Z,31.23
2024-04-16T06:54:39.718Z,33.03
2024-04-16T06:57:09.381Z,36.73
2024-04-16T06:59:36.297Z,37.73
2024-04-16T07:02:06.366Z,28.33
2024-04-16T07:04:33.993Z,32.40
2024-04-16T07:07:05.890Z,27.98
2024-04-16T07:09:37.441Z,26.03
2024-04-16T07:12:07.531Z,32.43
2024-04-16T07:14:37.039Z,30.83
2024-04-16T07:17:04.146Z,26.97
2024-04-16T07:19:33.918Z,30.00
2024-04-16T07:22:01.112Z,25.70
2024-04-16T07:24:30.644Z,34.73
2024-04-16T07:27:00.211Z,29.50
2024-04-16T07:29:29.719Z,30.50
2024-04-16T07:31:56.618Z,26.93
2024-04-16T07:34:26.611Z,25.98
2024-04-16T07:36:53.575Z,19.55
2024-04-16T07:39:23.289Z,22.43
2024-04-16T07:41:50.459Z,15.50
2024-04-16T07:44:23.840Z,13.57
2024-04-16T07:46:51.291Z,13.95
2024-04-16T07:49:20.914Z,9.25
2024-04-16T07:51:47.990Z,9.45
2024-04-16T07:54:17.704Z,16.50
2024-04-16T07:56:44.670Z,11.40
2024-04-16T07:59:14.452Z,11.60
2024-04-16T08:01:44.168Z,14.68
2024-04-16T08:04:16.614Z,12.60
2024-04-16T08:06:43.653Z,10.98
2024-04-16T08:09:13.985Z,11.85
2024-04-16T08:11:40.951Z,12.57
2024-04-16T08:14:10.544Z,7.80
2024-04-16T08:16:37.533Z,11.98
2024-04-16T08:19:09.781Z,14.02
2024-04-16T08:21:36.842Z,18.50
2024-04-16T08:24:06.588Z,8.73
2024-04-16T08:26:33.524Z,12.57
2024-04-16T08:29:02.997Z,14.65
2024-04-16T08:31:31.489Z,10.43
2024-04-16T08:34:03.579Z,10.60
2024-04-16T08:36:33.352Z,9.95
2024-04-16T08:39:02.914Z,8.85
2024-04-16T08:41:30.424Z,9.32
2024-04-16T08:44:04.581Z,10.77
2024-04-16T08:46:33.612Z,8.40
2024-04-16T08:49:04.422Z,4.80
2024-04-16T08:51:35.835Z,7.60
2024-04-16T08:54:06.456Z,7.32
2024-04-16T08:56:36.504Z,8.07
2024-04-16T08:59:06.258Z,7.28
2024-04-16T09:01:33.838Z,8.10
2024-04-16T09:04:03.965Z,8.40
2024-04-16T09:06:33.796Z,5.25
2024-04-16T09:09:09.823Z,11.10
2024-04-16T09:11:38.205Z,12.07
2024-04-16T09:14:07.827Z,9.15
2024-04-16T09:16:36.415Z,9.43
2024-04-16T09:19:10.233Z,11.30
2024-04-16T09:21:40.151Z,9.68
2024-04-16T09:24:12.321Z,12.48
2024-04-16T09:26:39.363Z,10.98
2024-04-16T09:29:08.865Z,9.48
2024-04-16T09:31:35.764Z,12.10
2024-04-16T09:34:09.683Z,10.45
2024-04-16T09:36:47.485Z,12.55
2024-04-16T09:39:21.107Z,9.90
2024-04-16T09:41:51.878Z,12.85
2024-04-16T09:44:19.551Z,13.43
2024-04-16T09:46:54.480Z,13.88
2024-04-16T09:49:30.952Z,14.88
2024-04-16T09:52:08.980Z,12.20
2024-04-16T09:54:39.733Z,14.77
2024-04-16T09:57:08.098Z,10.32
2024-04-16T09:59:37.703Z,13.02
2024-04-16T10:02:05.151Z,12.68
2024-04-16T10:04:36.440Z,12.30
2024-04-16T10:07:04.473Z,16.92
2024-04-16T10:09:37.178Z,11.13
2024-04-16T10:12:06.193Z,12.20
2024-04-16T10:14:35.752Z,14.38
2024-04-16T10:17:02.870Z,8.50
2024-04-16T10:19:33.071Z,16.15
2024-04-16T10:22:02.668Z,9.00
2024-04-16T10:24:33.397Z,5.65
2024-04-16T10:27:03.100Z,10.20
2024-04-16T10:29:34.241Z,13.30
2024-04-16T10:32:02.956Z,5.00
2024-04-16T10:34:32.930Z,8.35
2024-04-16T10:36:59.930Z,9.60
2024-04-16T10:39:35.361Z,8.13
2024-04-16T10:42:05.490Z,10.55
2024-04-16T10:44:37.467Z,10.18
2024-04-16T10:47:05.635Z,8.60
2024-04-16T10:49:35.284Z,8.02
2024-04-16T10:52:11.065Z,8.82
2024-04-16T10:54:42.071Z,7.22
2024-04-16T10:57:11.689Z,8.20
2024-04-16T10:59:48.805Z,8.60
2024-04-16T11:02:21.483Z,10.38
2024-04-16T11:04:51.049Z,9.75
2024-04-16T11:07:18.364Z,7.32
2024-04-16T11:09:48.621Z,7.82
2024-04-16T11:12:18.255Z,10.27
2024-04-16T11:14:48.804Z,8.85
2024-04-16T11:17:15.712Z,10.25
2024-04-16T11:19:45.411Z,11.20
2024-04-16T11:22:13.065Z,12.63
2024-04-16T11:24:42.895Z,9.43
2024-04-16T11:27:12.868Z,9.73
2024-04-16T11:29:51.783Z,4.88
2024-04-16T11:32:19.490Z,11.18
2024-04-16T11:34:50.444Z,8.45
2024-04-16T11:37:18.144Z,15.48
2024-04-16T11:39:47.940Z,8.98
2024-04-16T11:42:14.920Z,13.32
2024-04-16T11:44:45.068Z,13.38
2024-04-16T11:47:14.851Z,13.13
2024-04-16T11:49:44.675Z,10.80
2024-04-16T11:52:11.913Z,14.95
2024-04-16T11:54:41.521Z,15.73
2024-04-16T11:57:08.525Z,18.25
2024-04-16T11:59:38.411Z,13.20
2024-04-16T12:02:08.411Z,12.68
2024-04-16T12:04:41.929Z,16.70
2024-04-16T12:07:09.034Z,17.35
2024-04-16T12:09:38.929Z,15.25
2024-04-16T12:12:06.335Z,17.52
2024-04-16T12:14:35.866Z,20.35
2024-04-16T12:17:02.864Z,19.30
2024-04-16T12:19:33.078Z,15.07
2024-04-16T12:22:02.668Z,18.20
2024-04-16T12:24:32.262Z,16.88
2024-04-16T12:26:59.205Z,11.90
2024-04-16T12:29:28.684Z,9.85
2024-04-16T12:31:56.025Z,8.23
2024-04-16T12:34:25.881Z,14.50
2024-04-16T12:36:53.135Z,9.95
2024-04-16T12:39:25.420Z,9.15
2024-04-16T12:41:52.348Z,13.38
2024-04-16T12:44:23.769Z,12.75
2024-04-16T12:46:50.765Z,17.13
2024-04-16T12:49:20.635Z,12.93
2024-04-16T12:51:47.475Z,11.63
2024-04-16T12:54:19.456Z,17.42
2024-04-16T12:56:51.985Z,12.80
2024-04-16T12:59:23.283Z,12.88
2024-04-16T13:01:50.477Z,16.73
2024-04-16T13:04:20.158Z,21.45
2024-04-16T13:06:47.160Z,13.32
2024-04-16T13:09:16.707Z,15.73
2024-04-16T13:11:43.685Z,14.18
2024-04-16T13:14:16.336Z,12.27
2024-04-16T13:16:43.196Z,14.85
2024-04-16T13:19:14.559Z,18.02
2024-04-16T13:21:44.429Z,15.18
2024-04-16T13:24:11.397Z,21.25
2024-04-16T13:26:40.900Z,20.40
2024-04-16T13:29:07.778Z,23.75
2024-04-16T13:31:40.053Z,22.98
2024-04-16T13:34:09.278Z,20.52
2024-04-16T13:36:38.790Z,29.80
2024-04-16T13:39:05.947Z,28.08
2024-04-16T13:41:35.551Z,32.42
2024-04-16T13:44:02.390Z,23.05
2024-04-16T13:46:32.061Z,24.60
2024-04-16T13:49:01.597Z,22.35
2024-04-16T13:51:31.159Z,23.70
2024-04-16T13:53:58.131Z,19.70
2024-04-16T13:56:27.677Z,20.40
2024-04-16T13:58:54.763Z,25.75
2024-04-16T14:01:24.452Z,23.95
2024-04-16T14:03:51.593Z,22.50
2024-04-16T14:06:23.879Z,28.60
2024-04-16T14:08:50.950Z,21.35
2024-04-16T14:11:23.120Z,23.85
2024-04-16T14:13:52.956Z,19.33
2024-04-16T14:16:22.722Z,18.48
2024-04-16T14:18:52.274Z,20.83
2024-04-16T14:21:24.534Z,27.52
2024-04-16T14:23:52.383Z,19.23
2024-04-16T14:26:21.834Z,23.67
2024-04-16T14:28:49.163Z,22.25
2024-04-16T14:31:19.087Z,24.58
2024-04-16T14:33:46.699Z,24.67
2024-04-16T14:36:17.526Z,23.52
2024-04-16T14:38:47.442Z,15.52
2024-04-16T14:41:16.987Z,24.25
2024-04-16T14:43:44.063Z,18.75
2024-04-16T14:46:13.615Z,20.10
2024-04-16T14:48:40.581Z,21.08
2024-04-16T14:51:10.237Z,16.85
2024-04-16T14:53:39.464Z,23.77
2024-04-16T14:56:11.858Z,18.52
2024-04-16T14:58:38.752Z,20.70
2024-04-16T15:01:08.394Z,26.00
2024-04-16T15:03:35.284Z,19.42
2024-04-16T15:06:06.272Z,16.15
2024-04-16T15:08:33.402Z,20.27
2024-04-16T15:11:03.172Z,19.95
2024-04-16T15:13:32.841Z,29.10
2024-04-16T15:16:02.714Z,23.02
2024-04-16T15:18:29.798Z,16.30
2024-04-16T15:20:59.483Z,19.83
2024-04-16T15:23:27.549Z,17.33
2024-04-16T15:25:57.097Z,17.50
2024-04-16T15:28:24.169Z,18.55
2024-04-16T15:30:56.439Z,21.23
2024-04-16T15:33:23.597Z,19.05
2024-04-16T15:35:54.247Z,23.88
2024-04-16T15:38:22.085Z,21.73
2024-04-16T15:40:54.755Z,19.48
2024-04-16T15:43:21.769Z,16.95
2024-04-16T15:45:51.657Z,20.70
2024-04-16T15:48:21.514Z,20.00
2024-04-16T15:50:53.142Z,25.13
2024-04-16T15:53:20.088Z,24.23
2024-04-16T15:55:53.558Z,19.13
2024-04-16T15:58:24.024Z,24.27
2024-04-16T16:00:54.356Z,25.95
2024-04-16T16:03:24.163Z,22.50
2024-04-16T16:05:56.703Z,24.75
2024-04-16T16:08:25.048Z,19.40
2024-04-16T16:10:55.123Z,23.60
2024-04-16T16:13:22.305Z,22.88
2024-04-16T16:15:51.844Z,21.92
2024-04-16T16:18:19.101Z,19.13
2024-04-16T16:20:55.867Z,22.58
2024-04-16T16:23:22.856Z,25.58
2024-04-16T16:25:53.046Z,23.20
2024-04-16T16:28:20.181Z,28.67
2024-04-16T16:30:49.926Z,23.95
2024-04-16T16:33:16.882Z,19.17
2024-04-16T16:35:48.562Z,27.95
2024-04-16T16:38:18.096Z,25.30
2024-04-16T16:40:47.828Z,25.05
2024-04-16T16:43:14.916Z,26.95
2024-04-16T16:45:44.686Z,18.98
2024-04-16T16:48:11.808Z,21.35
2024-04-16T16:50:43.931Z,23.27
2024-04-16T16:53:11.897Z,23.55
2024-04-16T16:55:44.096Z,19.17
2024-04-16T16:58:11.036Z,29.30
2024-04-16T17:00:41.061Z,28.45
2024-04-16T17:03:08.182Z,28.67
2024-04-16T17:05:39.029Z,19.33
2024-04-16T17:08:07.078Z,27.77
2024-04-16T17:10:36.603Z,26.63
2024-04-16T17:13:06.538Z,28.75
2024-04-16T17:15:38.406Z,28.67
2024-04-16T17:18:06.212Z,27.58
2024-04-16T17:20:35.808Z,23.27
2024-04-16T17:23:03.599Z,24.95
2024-04-16T17:25:33.291Z,23.63
2024-04-16T17:28:00.543Z,28.08
2024-04-16T17:30:32.803Z,29.77
2024-04-16T17:32:59.763Z,26.42
2024-04-16T17:35:29.510Z,19.02
2024-04-16T17:37:57.683Z,19.85
2024-04-16T17:40:27.481Z,23.67
2024-04-16T17:42:55.080Z,22.33
2024-04-16T17:45:24.576Z,22.65
2024-04-16T17:47:54.325Z,23.55
2024-04-16T17:50:23.843Z,30.40
2024-04-16T17:52:51.012Z,21.10
2024-04-16T17:55:22.606Z,19.92
2024-04-16T17:57:52.029Z,29.58
2024-04-16T18:00:21.949Z,20.25
2024-04-16T18:02:54.391Z,26.85
2024-04-16T18:05:23.969Z,19.85
2024-04-16T18:07:51.111Z,21.50
2024-04-16T18:10:23.507Z,21.08
2024-04-16T18:12:50.603Z,20.30
2024-04-16T18:15:20.661Z,22.58
2024-04-16T18:17:47.632Z,18.83
2024-04-16T18:20:20.164Z,23.92
2024-04-16T18:22:47.925Z,22.67
2024-04-16T18:25:17.946Z,19.02
2024-04-16T18:27:44.843Z,19.65
2024-04-16T18:30:15.292Z,22.50
2024-04-16T18:32:45.464Z,18.73
2024-04-16T18:35:15.224Z,16.13
2024-04-16T18:37:44.905Z,20.58
2024-04-16T18:40:15.183Z,16.63
2024-04-16T18:42:42.108Z,22.17
2024-04-16T18:45:11.615Z,21.65
2024-04-16T18:47:38.546Z,14.53
2024-04-16T18:50:08.588Z,18.38
2024-04-16T18:52:35.472Z,16.02
2024-04-16T18:55:08.127Z,15.07
2024-04-16T18:57:35.174Z,20.10
2024-04-16T19:00:04.668Z,20.15
2024-04-16T19:02:31.589Z,19.47
2024-04-16T19:05:01.130Z,18.95
2024-04-16T19:07:28.025Z,20.70
2024-04-16T19:09:57.896Z,20.33
2024-04-16T19:12:27.565Z,23.30
2024-04-16T19:14:57.879Z,17.50
2024-04-16T19:17:24.873Z,22.73
2024-04-16T19:19:54.610Z,25.30
2024-04-16T19:22:24.460Z,18.00
2024-04-16T19:24:56.398Z,20.67
2024-04-16T19:27:28.276Z,17.27
2024-04-16T19:29:57.910Z,28.57
2024-04-16T19:32:24.883Z,20.90
2024-04-16T19:34:55.061Z,20.77
2024-04-16T19:37:22.027Z,25.37
2024-04-16T19:39:51.949Z,22.73
2024-04-16T19:42:19.287Z,19.97
2024-04-16T19:44:51.766Z,28.13
2024-04-16T19:47:18.620Z,25.60
2024-04-16T19:49:48.672Z,19.70
2024-04-16T19:52:18.730Z,24.87
2024-04-16T19:54:48.746Z,18.27
2024-04-16T19:57:15.613Z,21.10
2024-04-16T19:59:46.210Z,19.40
2024-04-16T20:02:17.273Z,18.20
2024-04-16T20:04:50.604Z,22.67
2024-04-16T20:07:17.749Z,19.83
2024-04-16T20:09:49.165Z,16.00
2024-04-16T20:12:16.103Z,25.70
2024-04-16T20:14:46.254Z,25.57
2024-04-16T20:17:15.872Z,21.53
2024-04-16T20:19:48.870Z,23.00
2024-04-16T20:22:15.843Z,14.93
2024-04-16T20:24:45.393Z,20.90
2024-04-16T20:27:12.290Z,21.97
2024-04-16T20:29:41.881Z,22.50
2024-04-16T20:32:08.713Z,21.20
2024-04-16T20:34:47.706Z,20.00
2024-04-16T20:37:19.920Z,16.27
2024-04-16T20:39:51.408Z,13.77
2024-04-16T20:42:18.251Z,22.67
2024-04-16T20:44:47.715Z,23.87
2024-04-16T20:47:14.572Z,21.00
2024-04-16T20:49:47.508Z,21.47
2024-04-16T20:52:15.693Z,18.63
2024-04-16T20:54:45.320Z,26.63
2024-04-16T20:57:12.232Z,25.13
2024-04-16T20:59:43.037Z,22.63
2024-04-16T21:02:10.163Z,21.87
2024-04-16T21:04:39.622Z,27.43
2024-04-16T21:07:09.215Z,24.53
2024-04-16T21:09:38.759Z,21.87
2024-04-16T21:12:06.283Z,18.27
2024-04-16T21:14:35.726Z,26.30
2024-04-16T21:17:02.575Z,19.80
2024-04-16T21:19:32.756Z,16.80
2024-04-16T21:21:59.754Z,21.20
2024-04-16T21:24:31.844Z,21.93
2024-04-16T21:26:58.674Z,20.23
2024-04-16T21:29:28.196Z,25.40
2024-04-16T21:31:55.207Z,26.47
2024-04-16T21:34:24.741Z,22.63
2024-04-16T21:36:51.697Z,18.63
2024-04-16T21:39:22.553Z,21.43
2024-04-16T21:41:52.368Z,18.83
2024-04-16T21:44:22.023Z,28.67
2024-04-16T21:46:49.478Z,23.83
2024-04-16T21:49:21.110Z,20.17
2024-04-16T21:51:47.976Z,15.67
2024-04-16T21:54:17.402Z,23.57
2024-04-16T21:56:44.507Z,16.53
2024-04-16T21:59:16.633Z,18.40
2024-04-16T22:01:43.591Z,28.30
2024-04-16T22:04:13.141Z,20.97
2024-04-16T22:06:40.077Z,22.17
2024-04-16T22:09:10.068Z,19.87
2024-04-16T22:11:37.101Z,17.70
2024-04-16T22:14:06.604Z,16.40
2024-04-16T22:17:29.699Z,15.43
2024-04-16T22:20:52.901Z,19.00
2024-04-16T22:23:53.096Z,18.93
2024-04-16T22:26:19.911Z,17.50
2024-04-16T22:28:50.544Z,15.40
2024-04-16T22:31:17.545Z,17.70
2024-04-16T22:33:46.980Z,25.37
2024-04-16T22:36:14.082Z,21.93
2024-04-16T22:38:43.599Z,17.63
2024-04-16T22:41:13.112Z,19.60
2024-04-16T22:43:42.605Z,18.03
2024-04-16T22:46:11.959Z,15.57
2024-04-16T22:48:41.569Z,20.30
2024-04-16T22:51:08.606Z,19.73
2024-04-16T22:53:38.072Z,19.70
2024-04-16T22:56:05.638Z,26.33
2024-04-16T22:58:37.805Z,26.00
2024-04-16T23:01:05.140Z,25.13
2024-04-16T23:03:34.765Z,24.60
2024-04-16T23:06:01.752Z,17.97
2024-04-16T23:08:31.296Z,25.40
2024-04-16T23:10:58.456Z,23.23
2024-04-16T23:13:28.110Z,17.67
2024-04-16T23:15:57.647Z,22.07
2024-04-16T23:18:27.131Z,22.67
2024-04-16T23:20:54.079Z,19.87
2024-04-16T23:23:23.743Z,21.47
2024-04-16T23:25:50.709Z,18.83
2024-04-16T23:28:20.504Z,21.40
2024-04-16T23:30:47.451Z,19.53
2024-04-16T23:33:19.602Z,14.73
2024-04-16T23:35:46.568Z,22.60
2024-04-16T23:38:16.105Z,26.70
2024-04-16T23:40:47.375Z,26.97
2024-04-16T23:43:17.066Z,12.53
2024-04-16T23:45:43.916Z,16.50
2024-04-16T23:48:13.433Z,13.30
2024-04-16T23:50:43.018Z,8.20
2024-04-16T23:53:12.491Z,13.13
2024-04-16T23:55:39.898Z,8.33
2024-04-16T23:58:09.439Z,8.30
